createdAt,value
2017-10-07T00:00:59.506Z,87.1
2017-10-07T00:02:00.952Z,87.2
2017-10-07T00:03:02.393Z,87.1
2017-10-07T00:04:03.832Z,87.1
2017-10-07T00:05:05.350Z,86.6
2017-10-07T00:06:06.802Z,86.7
2017-10-07T00:07:08.273Z,87.1
2017-10-07T00:08:09.740Z,87.0
2017-10-07T00:09:11.198Z,86.9
2017-10-07T00:10:12.737Z,86.7
2017-10-07T00:11:14.220Z,86.9
2017-10-07T00:12:15.675Z,87.0
2017-10-07T00:13:17.147Z,86.5
2017-10-07T00:14:18.603Z,86.7
2017-10-07T00:15:20.083Z,86.9
2017-10-07T00:16:21.546Z,86.9
2017-10-07T00:17:23.008Z,87.1
2017-10-07T00:18:24.469Z,87.1
2017-10-07T00:19:25.940Z,87.4
2017-10-07T00:20:27.428Z,87.8
2017-10-07T00:21:28.879Z,87.8
2017-10-07T00:22:30.354Z,87.6
2017-10-07T00:23:31.801Z,87.8
2017-10-07T00:24:33.266Z,87.8
2017-10-07T00:25:34.708Z,87.5
2017-10-07T00:26:36.202Z,87.9
2017-10-07T00:27:38.583Z,87.9
2017-10-07T00:28:40.024Z,87.8
2017-10-07T00:29:41.484Z,87.4
2017-10-07T00:30:42.946Z,86.9
2017-10-07T00:31:44.404Z,87.2
2017-10-07T00:32:45.889Z,86.8
2017-10-07T00:33:47.354Z,86.8
2017-10-07T00:34:48.847Z,86.8
2017-10-07T00:35:50.263Z,86.8
2017-10-07T00:36:51.760Z,86.9
2017-10-07T00:37:53.211Z,86.7
2017-10-07T00:38:54.650Z,86.7
2017-10-07T00:39:56.066Z,86.6
2017-10-07T00:40:57.489Z,86.9
2017-10-07T00:41:58.927Z,87.6
2017-10-07T00:43:00.333Z,87.2
2017-10-07T00:44:01.751Z,87.5
2017-10-07T00:45:03.165Z,87.9
2017-10-07T00:46:04.607Z,88.2
2017-10-07T00:47:06.045Z,88.7
2017-10-07T00:48:07.477Z,88.3
2017-10-07T00:49:08.905Z,88.9
2017-10-07T00:50:10.397Z,88.6
2017-10-07T00:51:11.815Z,88.8
2017-10-07T00:52:13.233Z,88.3
2017-10-07T00:53:14.667Z,89.1
2017-10-07T00:54:16.092Z,89.4
2017-10-07T00:55:18.067Z,88.6
2017-10-07T00:56:19.501Z,88.8
2017-10-07T00:57:20.984Z,88.4
2017-10-07T00:58:22.411Z,89.9
2017-10-07T00:59:23.859Z,88.5
2017-10-07T01:00:25.271Z,88.9
2017-10-07T01:01:26.693Z,89.2
2017-10-07T01:02:28.126Z,89.2
2017-10-07T01:03:29.552Z,89.2
2017-10-07T01:04:30.973Z,89.3
2017-10-07T01:05:32.414Z,89.3
2017-10-07T01:06:33.865Z,89.2
2017-10-07T01:07:35.338Z,89.2
2017-10-07T01:08:36.819Z,89.3
2017-10-07T01:09:38.258Z,89.2
2017-10-07T01:10:39.735Z,89.1
2017-10-07T01:11:41.189Z,89.2
2017-10-07T01:12:42.666Z,89.2
2017-10-07T01:13:44.104Z,88.9
2017-10-07T01:14:45.548Z,88.8
2017-10-07T01:15:47.037Z,88.9
2017-10-07T01:16:48.524Z,89.5
2017-10-07T01:17:49.968Z,88.9
2017-10-07T01:18:51.433Z,88.8
2017-10-07T01:19:52.914Z,89.0
2017-10-07T01:20:54.397Z,88.8
2017-10-07T01:21:55.864Z,89.0
2017-10-07T01:22:57.319Z,88.6
2017-10-07T01:23:58.783Z,88.9
2017-10-07T01:25:00.237Z,89.0
2017-10-07T01:26:01.710Z,88.8
2017-10-07T01:27:03.157Z,88.6
2017-10-07T01:28:04.665Z,89.0
2017-10-07T01:29:06.141Z,88.8
2017-10-07T01:30:08.578Z,89.0
2017-10-07T01:31:10.055Z,88.8
2017-10-07T01:32:11.533Z,89.1
2017-10-07T01:33:13.031Z,88.7
2017-10-07T01:34:14.481Z,88.8
2017-10-07T01:35:15.901Z,88.9
2017-10-07T01:36:17.323Z,88.9
2017-10-07T01:37:18.741Z,89.0
2017-10-07T01:38:20.199Z,88.7
2017-10-07T01:39:21.682Z,88.8
2017-10-07T01:40:23.158Z,88.9
2017-10-07T01:41:24.647Z,88.6
2017-10-07T01:42:26.120Z,88.7
2017-10-07T01:43:27.563Z,88.6
2017-10-07T01:44:29.019Z,88.7
2017-10-07T01:45:30.473Z,88.8
2017-10-07T01:46:31.934Z,88.9
2017-10-07T01:47:33.414Z,88.9
2017-10-07T01:48:34.882Z,88.9
2017-10-07T01:49:36.348Z,89.1
2017-10-07T01:50:37.807Z,88.8
2017-10-07T01:51:39.241Z,88.7
2017-10-07T01:52:40.692Z,88.9
2017-10-07T01:53:42.145Z,89.0
2017-10-07T01:54:43.620Z,89.1
2017-10-07T01:55:45.112Z,89.4
2017-10-07T01:56:46.550Z,88.9
2017-10-07T01:57:48.009Z,89.4
2017-10-07T01:58:49.471Z,89.0
2017-10-07T01:59:50.962Z,89.0
2017-10-07T02:00:52.403Z,89.0
2017-10-07T02:01:53.878Z,88.2
2017-10-07T02:02:55.319Z,89.2
2017-10-07T02:03:56.795Z,89.1
2017-10-07T02:04:58.270Z,89.1
2017-10-07T02:05:59.741Z,89.0
2017-10-07T02:07:01.197Z,89.0
2017-10-07T02:08:02.665Z,89.1
2017-10-07T02:09:04.113Z,89.2
2017-10-07T02:10:05.586Z,89.0
2017-10-07T02:11:07.055Z,89.0
2017-10-07T02:12:08.525Z,89.0
2017-10-07T02:13:09.975Z,89.0
2017-10-07T02:14:11.457Z,89.0
2017-10-07T02:15:12.906Z,89.2
2017-10-07T02:16:14.370Z,88.9
2017-10-07T02:17:15.793Z,89.0
2017-10-07T02:18:17.210Z,89.5
2017-10-07T02:19:18.651Z,89.2
2017-10-07T02:20:20.101Z,88.8
2017-10-07T02:21:21.522Z,88.8
2017-10-07T02:22:22.986Z,89.1
2017-10-07T02:23:24.427Z,88.7
2017-10-07T02:24:25.855Z,88.6
2017-10-07T02:25:27.279Z,88.4
2017-10-07T02:26:28.736Z,88.7
2017-10-07T02:27:30.191Z,88.6
2017-10-07T02:28:31.618Z,88.5
2017-10-07T02:29:33.062Z,88.5
2017-10-07T02:30:34.498Z,88.6
2017-10-07T02:31:35.928Z,88.4
2017-10-07T02:32:37.360Z,88.5
2017-10-07T02:33:38.812Z,88.6
2017-10-07T02:34:40.313Z,88.6
2017-10-07T02:35:41.754Z,88.2
2017-10-07T02:36:43.221Z,88.7
2017-10-07T02:37:44.656Z,88.2
2017-10-07T02:38:46.151Z,88.2
2017-10-07T02:39:47.643Z,88.8
2017-10-07T02:40:49.993Z,88.8
2017-10-07T02:41:51.884Z,88.6
2017-10-07T02:42:53.413Z,88.4
2017-10-07T02:43:54.875Z,88.7
2017-10-07T02:44:56.363Z,89.0
2017-10-07T02:45:57.819Z,88.9
2017-10-07T02:46:59.300Z,88.5
2017-10-07T02:48:00.739Z,88.4
2017-10-07T02:49:02.203Z,89.2
2017-10-07T02:50:03.801Z,89.1
2017-10-07T02:51:05.291Z,88.4
2017-10-07T02:52:06.757Z,88.3
2017-10-07T02:53:08.236Z,88.2
2017-10-07T02:54:09.679Z,87.5
2017-10-07T02:55:11.136Z,88.1
2017-10-07T02:56:12.592Z,88.0
2017-10-07T02:57:14.041Z,88.2
2017-10-07T02:58:15.513Z,88.0
2017-10-07T02:59:16.971Z,87.7
2017-10-07T03:00:18.441Z,87.9
2017-10-07T03:01:19.880Z,87.6
2017-10-07T03:02:21.342Z,88.0
2017-10-07T03:03:22.815Z,88.0
2017-10-07T03:04:24.284Z,87.9
2017-10-07T03:05:25.736Z,87.5
2017-10-07T03:06:27.234Z,87.5
2017-10-07T03:07:28.689Z,87.8
2017-10-07T03:08:30.132Z,87.9
2017-10-07T03:09:31.613Z,87.2
2017-10-07T03:10:33.079Z,87.5
2017-10-07T03:11:34.547Z,87.4
2017-10-07T03:12:36.004Z,87.5
2017-10-07T03:13:37.488Z,87.3
2017-10-07T03:14:38.968Z,87.4
2017-10-07T03:15:40.450Z,87.6
2017-10-07T03:16:41.914Z,87.4
2017-10-07T03:17:43.383Z,87.1
2017-10-07T03:18:44.855Z,87.3
2017-10-07T03:19:46.349Z,87.2
2017-10-07T03:20:47.806Z,87.1
2017-10-07T03:21:49.304Z,86.7
2017-10-07T03:22:50.801Z,87.0
2017-10-07T03:23:52.273Z,87.3
2017-10-07T03:24:53.936Z,86.7
2017-10-07T03:25:55.425Z,87.0
2017-10-07T03:26:56.885Z,87.0
2017-10-07T03:27:58.364Z,87.0
2017-10-07T03:28:59.804Z,86.8
2017-10-07T03:30:01.247Z,87.0
2017-10-07T03:31:02.735Z,87.0
2017-10-07T03:32:04.262Z,87.0
2017-10-07T03:33:05.699Z,87.0
2017-10-07T03:34:07.180Z,86.9
2017-10-07T03:35:08.747Z,86.9
2017-10-07T03:36:10.200Z,87.0
2017-10-07T03:37:11.649Z,87.1
2017-10-07T03:38:13.084Z,86.9
2017-10-07T03:39:14.625Z,87.0
2017-10-07T03:40:16.112Z,87.0
2017-10-07T03:41:17.576Z,87.0
2017-10-07T03:42:19.039Z,86.9
2017-10-07T03:43:20.513Z,87.1
2017-10-07T03:44:21.948Z,87.0
2017-10-07T03:45:23.454Z,86.9
2017-10-07T03:46:24.912Z,86.8
2017-10-07T03:47:26.414Z,87.2
2017-10-07T03:48:27.885Z,87.0
2017-10-07T03:49:29.354Z,87.2
2017-10-07T03:50:30.826Z,87.2
2017-10-07T03:51:32.258Z,86.8
2017-10-07T03:52:33.719Z,86.9
2017-10-07T03:53:35.197Z,86.9
2017-10-07T03:54:36.659Z,87.0
2017-10-07T03:55:38.104Z,86.9
2017-10-07T03:56:39.595Z,86.9
2017-10-07T03:57:41.048Z,87.1
2017-10-07T03:58:42.521Z,86.8
2017-10-07T03:59:43.997Z,86.8
2017-10-07T04:00:45.453Z,86.4
2017-10-07T04:01:46.913Z,86.2
2017-10-07T04:02:48.368Z,86.3
2017-10-07T04:03:49.813Z,85.9
2017-10-07T04:04:51.254Z,86.5
2017-10-07T04:05:52.705Z,86.3
2017-10-07T04:06:54.134Z,86.2
2017-10-07T04:07:55.639Z,86.3
2017-10-07T04:08:57.104Z,86.7
2017-10-07T04:09:58.571Z,85.6
2017-10-07T04:11:00.030Z,85.5
2017-10-07T04:12:01.498Z,85.9
2017-10-07T04:13:02.952Z,85.4
2017-10-07T04:14:04.443Z,85.7
2017-10-07T04:15:05.898Z,85.6
2017-10-07T04:16:07.350Z,85.3
2017-10-07T04:17:08.807Z,85.4
2017-10-07T04:18:10.266Z,85.8
2017-10-07T04:19:11.759Z,85.4
2017-10-07T04:20:13.215Z,85.6
2017-10-07T04:21:14.672Z,85.4
2017-10-07T04:22:16.178Z,84.7
2017-10-07T04:23:17.654Z,85.1
2017-10-07T04:24:19.137Z,84.7
2017-10-07T04:25:20.574Z,84.6
2017-10-07T04:26:22.033Z,84.7
2017-10-07T04:27:23.479Z,84.5
2017-10-07T04:28:24.899Z,84.3
2017-10-07T04:29:26.311Z,84.2
2017-10-07T04:30:27.733Z,83.8
2017-10-07T04:31:29.156Z,83.8
2017-10-07T04:32:30.564Z,83.8
2017-10-07T04:33:31.979Z,83.2
2017-10-07T04:34:33.378Z,83.4
2017-10-07T04:35:34.798Z,83.2
2017-10-07T04:36:36.197Z,82.7
2017-10-07T04:37:37.599Z,83.0
2017-10-07T04:38:38.998Z,82.7
2017-10-07T04:39:40.399Z,82.9
2017-10-07T04:40:41.793Z,82.4
2017-10-07T04:41:43.195Z,83.1
2017-10-07T04:42:44.587Z,82.0
2017-10-07T04:43:45.992Z,81.9
2017-10-07T04:44:47.419Z,82.0
2017-10-07T04:45:48.823Z,81.9
2017-10-07T04:46:50.229Z,81.7
2017-10-07T04:47:51.628Z,82.0
2017-10-07T04:48:53.045Z,81.7
2017-10-07T04:49:54.472Z,82.1
2017-10-07T04:50:55.870Z,81.6
2017-10-07T04:51:57.274Z,81.4
2017-10-07T04:52:58.677Z,81.2
2017-10-07T04:54:00.075Z,81.3
2017-10-07T04:55:01.477Z,80.8
2017-10-07T04:56:02.884Z,80.8
2017-10-07T04:57:04.284Z,80.8
2017-10-07T04:58:05.683Z,81.1
2017-10-07T04:59:07.103Z,81.2
2017-10-07T05:00:08.510Z,81.2
2017-10-07T05:01:09.921Z,80.9
2017-10-07T05:02:11.314Z,80.9
2017-10-07T05:03:12.711Z,80.9
2017-10-07T05:04:14.127Z,81.0
2017-10-07T05:05:15.530Z,81.2
2017-10-07T05:06:16.940Z,80.8
2017-10-07T05:07:18.375Z,80.2
2017-10-07T05:08:19.769Z,80.3
2017-10-07T05:09:21.181Z,80.4
2017-10-07T05:10:22.574Z,80.5
2017-10-07T05:11:23.971Z,80.5
2017-10-07T05:12:25.371Z,80.1
2017-10-07T05:13:26.791Z,80.3
2017-10-07T05:14:28.181Z,80.1
2017-10-07T05:15:29.582Z,80.5
2017-10-07T05:16:30.985Z,80.6
2017-10-07T05:17:32.395Z,80.1
2017-10-07T05:18:33.792Z,80.5
2017-10-07T05:19:35.185Z,80.3
2017-10-07T05:20:36.583Z,80.4
2017-10-07T05:21:38.001Z,80.3
2017-10-07T05:22:39.405Z,80.2
2017-10-07T05:23:40.802Z,80.0
2017-10-07T05:24:42.201Z,80.3
2017-10-07T05:25:43.604Z,80.4
2017-10-07T05:26:45.001Z,79.8
2017-10-07T05:27:46.427Z,80.4
2017-10-07T05:28:47.829Z,80.3
2017-10-07T05:29:49.230Z,80.5
2017-10-07T05:30:50.652Z,80.3
2017-10-07T05:31:52.057Z,79.9
2017-10-07T05:32:53.465Z,80.4
2017-10-07T05:33:54.868Z,79.9
2017-10-07T05:34:56.269Z,79.8
2017-10-07T05:35:57.669Z,79.7
2017-10-07T05:36:59.077Z,79.2
2017-10-07T05:38:00.479Z,79.4
2017-10-07T05:39:01.885Z,79.0
2017-10-07T05:40:03.328Z,79.1
2017-10-07T05:41:04.730Z,79.2
2017-10-07T05:42:06.148Z,79.3
2017-10-07T05:43:07.550Z,79.2
2017-10-07T05:44:08.954Z,78.7
2017-10-07T05:45:10.370Z,78.7
2017-10-07T05:46:11.774Z,78.6
2017-10-07T05:47:13.194Z,78.8
2017-10-07T05:48:14.590Z,78.9
2017-10-07T05:49:16.007Z,78.7
2017-10-07T05:50:17.412Z,78.7
2017-10-07T05:51:18.809Z,78.6
2017-10-07T05:52:20.208Z,78.6
2017-10-07T05:53:21.610Z,78.6
2017-10-07T05:54:23.008Z,78.6
2017-10-07T05:55:24.408Z,78.6
2017-10-07T05:56:25.810Z,78.6
2017-10-07T05:57:27.215Z,78.3
2017-10-07T05:58:28.614Z,77.9
2017-10-07T05:59:30.008Z,78.0
2017-10-07T06:00:31.415Z,77.7
2017-10-07T06:01:32.829Z,77.7
2017-10-07T06:02:34.239Z,78.0
2017-10-07T06:03:36.666Z,77.8
2017-10-07T06:04:38.081Z,77.7
2017-10-07T06:05:39.485Z,77.6
2017-10-07T06:06:40.895Z,77.5
2017-10-07T06:07:42.294Z,77.4
2017-10-07T06:08:43.706Z,77.2
2017-10-07T06:09:45.114Z,77.3
2017-10-07T06:10:46.511Z,77.3
2017-10-07T06:11:47.929Z,77.1
2017-10-07T06:12:49.327Z,77.3
2017-10-07T06:13:50.739Z,77.1
2017-10-07T06:14:52.144Z,77.3
2017-10-07T06:15:53.553Z,77.3
2017-10-07T06:16:54.961Z,77.2
2017-10-07T06:17:56.365Z,77.5
2017-10-07T06:18:57.794Z,77.5
2017-10-07T06:19:59.209Z,77.6
2017-10-07T06:21:00.610Z,77.4
2017-10-07T06:22:02.042Z,77.4
2017-10-07T06:23:03.461Z,77.3
2017-10-07T06:24:04.856Z,77.3
2017-10-07T06:25:06.263Z,77.9
2017-10-07T06:26:07.683Z,77.6
2017-10-07T06:27:09.114Z,77.9
2017-10-07T06:28:10.531Z,78.6
2017-10-07T06:29:11.949Z,78.2
2017-10-07T06:30:13.377Z,78.1
2017-10-07T06:31:14.797Z,78.5
2017-10-07T06:32:16.205Z,78.2
2017-10-07T06:33:17.603Z,78.0
2017-10-07T06:34:19.003Z,78.2
2017-10-07T06:35:20.399Z,77.9
2017-10-07T06:36:21.810Z,78.3
2017-10-07T06:37:23.239Z,78.7
2017-10-07T06:38:24.650Z,78.7
2017-10-07T06:39:26.050Z,78.7
2017-10-07T06:40:27.457Z,78.7
2017-10-07T06:41:28.858Z,78.9
2017-10-07T06:42:30.262Z,79.1
2017-10-07T06:43:31.671Z,78.7
2017-10-07T06:44:33.073Z,78.1
2017-10-07T06:45:34.474Z,78.3
2017-10-07T06:46:35.876Z,78.0
2017-10-07T06:47:37.286Z,78.0
2017-10-07T06:48:38.689Z,78.1
2017-10-07T06:49:40.121Z,78.1
2017-10-07T06:50:41.698Z,78.1
2017-10-07T06:51:43.322Z,78.1
2017-10-07T06:52:44.733Z,78.1
2017-10-07T06:53:46.157Z,78.3
2017-10-07T06:54:47.624Z,78.1
2017-10-07T06:55:49.053Z,78.2
2017-10-07T06:56:50.526Z,78.2
2017-10-07T06:57:52.007Z,78.6
2017-10-07T06:58:53.424Z,78.5
2017-10-07T06:59:54.866Z,77.7
2017-10-07T07:00:56.279Z,78.0
2017-10-07T07:01:57.709Z,77.7
2017-10-07T07:02:59.151Z,77.5
2017-10-07T07:04:00.609Z,77.4
2017-10-07T07:05:02.108Z,77.7
2017-10-07T07:06:03.548Z,77.3
2017-10-07T07:07:04.981Z,77.2
2017-10-07T07:08:06.409Z,77.2
2017-10-07T07:09:07.832Z,77.3
2017-10-07T07:10:09.275Z,77.4
2017-10-07T07:11:10.826Z,77.5
2017-10-07T07:12:12.423Z,77.3
2017-10-07T07:13:13.950Z,77.7
2017-10-07T07:14:15.518Z,77.6
2017-10-07T07:15:16.960Z,77.1
2017-10-07T07:16:18.467Z,77.4
2017-10-07T07:17:19.983Z,77.4
2017-10-07T07:18:21.493Z,77.7
2017-10-07T07:19:22.948Z,77.1
2017-10-07T07:20:24.496Z,77.3
2017-10-07T07:21:25.954Z,76.9
2017-10-07T07:22:27.410Z,77.0
2017-10-07T07:23:28.852Z,77.0
2017-10-07T07:24:30.309Z,76.6
2017-10-07T07:25:31.727Z,77.0
2017-10-07T07:26:33.212Z,76.9
2017-10-07T07:27:34.702Z,77.1
2017-10-07T07:28:36.283Z,77.1
2017-10-07T07:29:38.737Z,76.7
2017-10-07T07:30:40.236Z,76.7
2017-10-07T07:31:41.834Z,76.8
2017-10-07T07:32:43.451Z,76.7
2017-10-07T07:33:45.095Z,76.7
2017-10-07T07:34:46.629Z,76.9
2017-10-07T07:35:48.134Z,76.0
2017-10-07T07:36:49.742Z,76.9
2017-10-07T07:37:51.235Z,76.8
2017-10-07T07:38:52.719Z,76.1
2017-10-07T07:39:55.260Z,76.0
2017-10-07T07:40:56.782Z,76.4
2017-10-07T07:41:58.495Z,76.6
2017-10-07T07:43:00.072Z,76.2
2017-10-07T07:44:01.752Z,76.3
2017-10-07T07:45:03.303Z,76.4
2017-10-07T07:46:04.843Z,76.0
2017-10-07T07:47:06.450Z,76.2
2017-10-07T07:48:08.025Z,76.0
2017-10-07T07:49:09.578Z,76.2
2017-10-07T07:50:11.142Z,76.4
2017-10-07T07:51:12.676Z,76.1
2017-10-07T07:52:14.199Z,76.0
2017-10-07T07:53:15.805Z,76.2
2017-10-07T07:54:17.324Z,76.7
2017-10-07T07:55:18.891Z,76.1
2017-10-07T07:56:20.478Z,77.0
2017-10-07T07:57:22.006Z,76.8
2017-10-07T07:58:23.570Z,76.9
2017-10-07T07:59:25.169Z,76.8
2017-10-07T08:00:26.801Z,76.9
2017-10-07T08:01:28.424Z,76.8
2017-10-07T08:02:30.040Z,76.9
2017-10-07T08:03:31.650Z,77.0
2017-10-07T08:04:33.197Z,76.7
2017-10-07T08:05:34.800Z,76.6
2017-10-07T08:06:36.443Z,76.8
2017-10-07T08:07:38.007Z,76.5
2017-10-07T08:08:39.565Z,76.5
2017-10-07T08:09:41.183Z,76.8
2017-10-07T08:10:42.777Z,76.8
2017-10-07T08:11:44.289Z,76.9
2017-10-07T08:12:45.852Z,76.9
2017-10-07T08:13:47.785Z,76.6
2017-10-07T08:14:49.439Z,77.1
2017-10-07T08:15:50.937Z,76.8
2017-10-07T08:16:52.479Z,77.1
2017-10-07T08:17:54.006Z,76.8
2017-10-07T08:18:55.631Z,77.5
2017-10-07T08:19:57.251Z,77.3
2017-10-07T08:20:58.873Z,77.8
2017-10-07T08:22:00.412Z,78.3
2017-10-07T08:23:02.220Z,78.3
2017-10-07T08:24:03.826Z,78.1
2017-10-07T08:25:05.349Z,78.1
2017-10-07T08:26:06.931Z,78.0
2017-10-07T08:27:08.432Z,78.3
2017-10-07T08:28:09.982Z,78.2
2017-10-07T08:29:11.548Z,78.5
2017-10-07T08:30:13.237Z,78.7
2017-10-07T08:31:14.853Z,78.0
2017-10-07T08:32:16.436Z,78.0
2017-10-07T08:33:18.026Z,78.1
2017-10-07T08:34:19.659Z,78.8
2017-10-07T08:35:21.213Z,78.5
2017-10-07T08:36:22.778Z,78.0
2017-10-07T08:37:24.437Z,78.5
2017-10-07T08:38:26.035Z,78.8
2017-10-07T08:39:27.647Z,78.8
2017-10-07T08:40:29.321Z,78.7
2017-10-07T08:41:30.830Z,78.8
2017-10-07T08:42:32.394Z,78.2
2017-10-07T08:43:34.020Z,78.3
2017-10-07T08:44:35.519Z,78.5
2017-10-07T08:45:37.046Z,78.2
2017-10-07T08:46:38.574Z,78.1
2017-10-07T08:47:40.082Z,78.9
2017-10-07T08:48:41.608Z,78.3
2017-10-07T08:49:43.080Z,78.2
2017-10-07T08:50:44.543Z,78.3
2017-10-07T08:51:46.001Z,78.2
2017-10-07T08:52:47.456Z,78.1
2017-10-07T08:53:48.915Z,78.1
2017-10-07T08:54:50.386Z,78.4
2017-10-07T08:55:51.836Z,78.5
2017-10-07T08:56:53.317Z,78.3
2017-10-07T08:57:54.776Z,78.6
2017-10-07T08:58:56.253Z,78.6
2017-10-07T08:59:57.740Z,78.2
2017-10-07T09:00:59.183Z,78.5
2017-10-07T09:02:00.662Z,78.4
2017-10-07T09:03:02.428Z,78.4
2017-10-07T09:04:03.925Z,78.1
2017-10-07T09:05:05.423Z,78.1
2017-10-07T09:06:06.964Z,78.0
2017-10-07T09:07:08.449Z,78.0
2017-10-07T09:08:10.327Z,77.8
2017-10-07T09:09:11.870Z,78.5
2017-10-07T09:10:13.438Z,77.9
2017-10-07T09:11:14.954Z,77.7
2017-10-07T09:12:16.576Z,78.0
2017-10-07T09:13:18.198Z,77.8
2017-10-07T09:14:19.826Z,77.7
2017-10-07T09:15:21.391Z,78.1
2017-10-07T09:16:23.012Z,78.0
2017-10-07T09:17:24.636Z,78.1
2017-10-07T09:18:26.290Z,77.8
2017-10-07T09:19:27.854Z,77.8
2017-10-07T09:20:29.362Z,77.8
2017-10-07T09:21:30.912Z,77.5
2017-10-07T09:22:32.395Z,77.4
2017-10-07T09:23:33.913Z,77.6
2017-10-07T09:24:35.435Z,77.6
2017-10-07T09:25:36.926Z,78.2
2017-10-07T09:26:38.427Z,77.7
2017-10-07T09:27:39.933Z,78.0
2017-10-07T09:28:41.433Z,78.0
2017-10-07T09:29:42.968Z,77.9
2017-10-07T09:30:45.310Z,77.8
2017-10-07T09:31:46.903Z,77.8
2017-10-07T09:32:48.422Z,78.1
2017-10-07T09:33:50.584Z,78.1
2017-10-07T09:34:52.755Z,77.9
2017-10-07T09:35:57.494Z,78.1
2017-10-07T09:36:58.983Z,78.0
2017-10-07T09:38:04.920Z,77.8
2017-10-07T09:39:06.374Z,78.3
2017-10-07T09:40:07.867Z,78.2
2017-10-07T09:41:09.374Z,78.3
2017-10-07T09:42:10.901Z,78.4
2017-10-07T09:43:12.383Z,78.6
2017-10-07T09:44:13.881Z,78.1
2017-10-07T09:45:15.369Z,78.5
2017-10-07T09:46:16.830Z,78.0
2017-10-07T09:47:18.355Z,78.2
2017-10-07T09:48:19.917Z,78.8
2017-10-07T09:49:21.412Z,78.9
2017-10-07T09:50:22.865Z,79.1
2017-10-07T09:51:24.284Z,79.3
2017-10-07T09:52:25.736Z,79.3
2017-10-07T09:53:27.221Z,80.8
2017-10-07T09:54:28.714Z,81.3
2017-10-07T09:55:30.235Z,81.6
2017-10-07T09:56:31.782Z,82.0
2017-10-07T09:57:33.977Z,81.7
2017-10-07T09:58:35.600Z,82.1
2017-10-07T09:59:37.102Z,81.9
2017-10-07T10:00:38.629Z,82.0
2017-10-07T10:01:40.109Z,81.9
2017-10-07T10:02:41.680Z,81.9
2017-10-07T10:03:43.221Z,82.0
2017-10-07T10:04:44.721Z,82.8
2017-10-07T10:05:46.233Z,82.8
2017-10-07T10:06:47.737Z,83.1
2017-10-07T10:07:49.284Z,83.5
2017-10-07T10:08:50.874Z,84.0
2017-10-07T10:09:52.410Z,83.7
2017-10-07T10:10:53.912Z,84.2
2017-10-07T10:11:55.514Z,84.6
2017-10-07T10:12:56.983Z,84.5
2017-10-07T10:13:58.508Z,84.6
2017-10-07T10:15:00.022Z,85.0
2017-10-07T10:16:01.550Z,84.9
2017-10-07T10:17:03.027Z,85.7
2017-10-07T10:18:04.528Z,85.5
2017-10-07T10:19:06.021Z,85.6
2017-10-07T10:20:07.543Z,85.9
2017-10-07T10:21:09.022Z,85.3
2017-10-07T10:22:10.704Z,85.9
2017-10-07T10:23:12.197Z,86.1
2017-10-07T10:24:13.714Z,85.9
2017-10-07T10:25:15.213Z,86.3
2017-10-07T10:26:16.744Z,86.2
2017-10-07T10:27:18.239Z,86.9
2017-10-07T10:28:19.785Z,86.5
2017-10-07T10:29:21.286Z,86.9
2017-10-07T10:30:22.756Z,87.1
2017-10-07T10:31:24.228Z,87.2
2017-10-07T10:32:25.714Z,86.8
2017-10-07T10:33:27.238Z,86.9
2017-10-07T10:34:28.770Z,86.9
2017-10-07T10:35:30.248Z,87.0
2017-10-07T10:36:31.766Z,87.4
2017-10-07T10:37:33.205Z,87.7
2017-10-07T10:38:34.659Z,87.6
2017-10-07T10:39:36.143Z,87.5
2017-10-07T10:40:37.601Z,87.5
2017-10-07T10:41:41.155Z,87.6
2017-10-07T10:42:42.432Z,87.8
2017-10-07T10:43:45.710Z,87.4
2017-10-07T10:44:47.120Z,87.2
2017-10-07T10:45:48.561Z,87.2
2017-10-07T10:46:50.019Z,87.5
2017-10-07T10:47:52.369Z,88.2
2017-10-07T10:48:53.671Z,88.0
2017-10-07T10:49:59.650Z,88.3
2017-10-07T10:51:01.125Z,88.3
2017-10-07T10:52:02.613Z,88.2
2017-10-07T10:53:04.133Z,88.5
2017-10-07T10:54:05.607Z,88.5
2017-10-07T10:55:07.065Z,88.6
2017-10-07T10:56:08.551Z,88.8
2017-10-07T10:57:10.037Z,88.9
2017-10-07T10:58:11.496Z,89.3
2017-10-07T10:59:12.959Z,89.3
2017-10-07T11:00:14.440Z,89.2
2017-10-07T11:01:15.910Z,89.2
2017-10-07T11:02:17.387Z,89.2
2017-10-07T11:03:18.894Z,89.6
2017-10-07T11:04:20.338Z,89.7
2017-10-07T11:05:21.800Z,89.7
2017-10-07T11:06:23.290Z,89.6
2017-10-07T11:07:24.764Z,89.5
2017-10-07T11:08:26.255Z,89.9
2017-10-07T11:09:28.246Z,89.6
2017-10-07T11:10:29.709Z,90.0
2017-10-07T11:11:31.204Z,89.6
2017-10-07T11:12:32.723Z,90.0
2017-10-07T11:13:34.247Z,89.7
2017-10-07T11:14:35.723Z,89.6
2017-10-07T11:15:37.332Z,90.1
2017-10-07T11:16:38.982Z,89.9
2017-10-07T11:17:40.460Z,90.1
2017-10-07T11:18:43.740Z,89.9
2017-10-07T11:19:45.392Z,90.1
2017-10-07T11:20:46.837Z,90.1
2017-10-07T11:21:48.267Z,90.4
2017-10-07T11:22:49.787Z,90.4
2017-10-07T11:23:51.297Z,90.2
2017-10-07T11:24:52.844Z,90.3
2017-10-07T11:25:54.330Z,90.6
2017-10-07T11:26:55.840Z,90.5
2017-10-07T11:27:58.531Z,90.4
2017-10-07T11:29:00.080Z,90.0
2017-10-07T11:30:02.191Z,90.8
2017-10-07T11:31:03.851Z,90.6
2017-10-07T11:32:05.574Z,91.0
2017-10-07T11:33:07.056Z,91.6
2017-10-07T11:34:08.692Z,91.4
2017-10-07T11:35:10.292Z,91.2
2017-10-07T11:36:11.809Z,92.0
2017-10-07T11:37:13.284Z,91.6
2017-10-07T11:38:14.927Z,91.5
2017-10-07T11:39:16.355Z,91.6
2017-10-07T11:40:17.811Z,92.4
2017-10-07T11:41:19.307Z,92.2
2017-10-07T11:42:21.330Z,92.2
2017-10-07T11:43:22.925Z,92.2
2017-10-07T11:44:24.490Z,91.9
2017-10-07T11:45:26.257Z,92.0
2017-10-07T11:46:27.884Z,92.1
2017-10-07T11:47:29.562Z,92.4
2017-10-07T11:48:31.170Z,92.5
2017-10-07T11:49:32.751Z,92.3
2017-10-07T11:50:34.448Z,92.6
2017-10-07T11:51:36.015Z,92.4
2017-10-07T11:52:37.487Z,92.1
2017-10-07T11:53:39.387Z,92.4
2017-10-07T11:54:41.076Z,92.2
2017-10-07T11:55:42.710Z,92.3
2017-10-07T11:56:44.398Z,92.5
2017-10-07T11:57:45.932Z,91.8
2017-10-07T11:58:47.570Z,92.1
2017-10-07T11:59:49.156Z,92.4
2017-10-07T12:00:50.804Z,91.7
2017-10-07T12:01:52.439Z,91.7
2017-10-07T12:02:54.199Z,91.9
2017-10-07T12:03:55.666Z,92.0
2017-10-07T12:04:57.111Z,91.0
2017-10-07T12:05:58.589Z,91.8
2017-10-07T12:07:00.038Z,92.2
2017-10-07T12:08:01.496Z,91.9
2017-10-07T12:09:02.955Z,91.9
2017-10-07T12:10:04.439Z,91.9
2017-10-07T12:11:06.063Z,91.8
2017-10-07T12:12:08.624Z,91.7
2017-10-07T12:13:10.201Z,91.7
2017-10-07T12:14:11.716Z,91.9
2017-10-07T12:15:13.251Z,91.8
2017-10-07T12:16:14.787Z,91.7
2017-10-07T12:17:16.286Z,91.8
2017-10-07T12:18:17.780Z,91.9
2017-10-07T12:19:19.286Z,92.4
2017-10-07T12:20:20.782Z,92.2
2017-10-07T12:21:22.309Z,91.8
2017-10-07T12:22:23.784Z,92.3
2017-10-07T12:23:25.259Z,92.2
2017-10-07T12:24:26.787Z,92.1
2017-10-07T12:25:28.231Z,92.2
2017-10-07T12:26:29.713Z,92.2
2017-10-07T12:27:31.184Z,92.3
2017-10-07T12:28:32.702Z,92.1
2017-10-07T12:29:34.193Z,92.0
2017-10-07T12:30:35.692Z,92.3
2017-10-07T12:31:37.500Z,92.4
2017-10-07T12:32:38.978Z,92.5
2017-10-07T12:33:40.563Z,92.5
2017-10-07T12:34:42.108Z,92.0
2017-10-07T12:35:43.670Z,92.2
2017-10-07T12:36:45.564Z,92.5
2017-10-07T12:37:47.139Z,92.7
2017-10-07T12:38:48.724Z,92.2
2017-10-07T12:39:50.603Z,92.4
2017-10-07T12:40:52.165Z,92.5
2017-10-07T12:41:53.966Z,92.5
2017-10-07T12:42:55.581Z,92.5
2017-10-07T12:43:57.127Z,92.5
2017-10-07T12:44:58.649Z,92.7
2017-10-07T12:46:00.227Z,92.4
2017-10-07T12:47:03.405Z,91.8
2017-10-07T12:48:04.979Z,92.5
2017-10-07T12:49:06.658Z,92.0
2017-10-07T12:50:08.282Z,92.5
2017-10-07T12:51:09.817Z,92.5
2017-10-07T12:52:11.333Z,92.3
2017-10-07T12:53:12.977Z,91.9
2017-10-07T12:54:14.543Z,92.2
2017-10-07T12:55:16.170Z,92.1
2017-10-07T12:56:17.732Z,91.8
2017-10-07T12:57:19.394Z,91.9
2017-10-07T12:58:20.957Z,91.6
2017-10-07T12:59:22.718Z,91.8
2017-10-07T13:00:24.241Z,91.4
2017-10-07T13:01:25.914Z,91.8
2017-10-07T13:02:27.464Z,91.7
2017-10-07T13:03:28.928Z,92.1
2017-10-07T13:04:30.681Z,90.9
2017-10-07T13:05:32.252Z,91.0
2017-10-07T13:06:33.935Z,91.2
2017-10-07T13:07:35.592Z,91.5
2017-10-07T13:08:37.299Z,91.8
2017-10-07T13:09:38.938Z,91.8
2017-10-07T13:10:40.438Z,91.4
2017-10-07T13:11:42.064Z,91.7
2017-10-07T13:12:44.042Z,92.0
2017-10-07T13:13:45.755Z,91.4
2017-10-07T13:14:47.566Z,91.4
2017-10-07T13:15:49.382Z,91.4
2017-10-07T13:16:51.354Z,91.4
2017-10-07T13:17:52.906Z,91.5
2017-10-07T13:18:55.012Z,91.1
2017-10-07T13:19:57.402Z,91.2
2017-10-07T13:20:58.935Z,91.5
2017-10-07T13:22:00.514Z,90.9
2017-10-07T13:23:02.102Z,90.9
2017-10-07T13:24:03.883Z,91.0
2017-10-07T13:25:05.509Z,91.1
2017-10-07T13:26:07.300Z,91.1
2017-10-07T13:27:09.447Z,91.0
2017-10-07T13:28:11.419Z,91.0
2017-10-07T13:29:13.201Z,91.1
2017-10-07T13:30:54.557Z,91.1
2017-10-07T13:31:56.363Z,90.8
2017-10-07T13:32:57.797Z,91.1
2017-10-07T13:33:59.923Z,91.0
2017-10-07T13:35:01.625Z,90.4
2017-10-07T13:36:03.638Z,91.1
2017-10-07T13:37:05.409Z,91.1
2017-10-07T13:38:07.014Z,90.8
2017-10-07T13:39:08.920Z,91.1
2017-10-07T13:40:10.508Z,91.0